Hudson, IA

5:58 PM CDT on May 26, 2017 (GMT -0500)
Hicks | | Change Station

Elev 958 ft 42.36 °N, 92.52 °W | Updated 3 minutes ago

Mostly Cloudy
Mostly Cloudy
71.5 °F
Feels Like 74 °F
N
6.0
Wind Variable Wind from ESE
Gusts 12.0 mph

Today
High -- | Low -- °F
--% Chance of Precip.
Yesterday
High -- | Low -- °F
Precip. -- in
Pressure 29.79 in
Visibility 10.0 miles
Clouds Scattered Clouds 2800 ft
Heat Index 74 °F
Dew Point 62 °F
Humidity 73%
Rainfall 0.00 in
Snow Depth Not available.
5:39 AM 8:35 PM
New Moon, 2% visible
METAR KALO 262254Z 13011KT 10SM SCT028 21/15 A2980 RMK AO2 SLP088 T02110150
Pressure 29.79 in
Visibility 10.0 miles
Clouds Scattered Clouds 2800 ft
Heat Index 74 °F
Dew Point 62 °F
Humidity 73%
Rainfall 0.00 in
Snow Depth Not available.
5:39 AM 8:35 PM
New Moon, 2% visible
METAR KALO 262254Z 13011KT 10SM SCT028 21/15 A2980 RMK AO2 SLP088 T02110150

Get Severe Weather Alerts

Thanks for signing up!

Be on the lookout for a verification email in your inbox.

You'll start receiving the daily forecast at 6 AM.

×

10-Day Weather Forecast

Almanac

Astronomy

May. 26, 2017 Rise Set
Actual Time
Civil Twilight
Nautical Twilight
Astronomical Twilight
Moon
Length of Visible Light
Length of Day
Tomorrow will be .
, % of the Moon is Illuminated

Today's Extremes

State Highs State Lows

Community

WunderPhotos

Category 6

Welcome to Category 6. This is the collective home for Weather Underground's featured writeups by Dr. Jeff Masters (right), Bob Henson (left), Chris Burt, and other regular contributors.

Nearby

Air Quality

  Air Quality AQ Index Pollutant
Not available.

Snow Depth

Station Depth Elevation

Earthquake Activity

City Distance Mag. Time & Date
Minimum magnitude displayed is 2.5.

Coastal Water Temperatures

Place Temperature

Stations

Nearby Weather Stations

Station Location Temp. Windchill Dew Point Humidity Wind Precip. Elev Updated Type
                   

Watches & Warnings

There are currently no watches in effect.